MST,Max TemperatureF,Mean TemperatureF,Min TemperatureF,Max Dew PointF,MeanDew PointF,Min DewpointF,Max Humidity, Mean Humidity, Min Humidity, Max Sea Level PressureIn, Mean Sea Level PressureIn, Min Sea Level PressureIn, Max VisibilityMiles, Mean VisibilityMiles, Min VisibilityMiles, Max Wind SpeedMPH, Mean Wind SpeedMPH, Max Gust SpeedMPH,PrecipitationIn, CloudCover, Events, WindDirDegrees
2011-12-1,44,30,17,21,16,12,79,49,31,30.24,30.07,29.95,10,10,10,30,13,38,0.00,0,,93
2011-12-2,39,26,12,21,14,5,85,61,42,30.25,30.12,29.94,10,10,10,14,4,18,0.00,1,,296
2011-12-3,32,29,26,25,24,19,93,84,64,30.03,29.90,29.75,10,6,1,16,7,,0.00,8,,231
2011-12-4,30,24,19,19,16,9,93,74,55,30.06,30.00,29.93,10,10,1,24,5,32,0.01,6,,220
2011-12-5,21,16,10,10,5,1,85,64,46,30.17,30.10,30.01,10,10,2,28,15,32,0.00,8,,106
2011-12-6,21,10,-2,3,0,-9,92,66,39,30.20,30.15,30.13,10,9,4,12,4,,0.00,4,,334
2011-12-7,30,13,-4,12,1,-9,100,65,44,30.33,30.27,30.18,10,10,10,15,7,,0.00,0,,1
2011-12-8,37,18,0,18,6,-6,92,70,41,30.17,30.12,30.08,10,10,10,13,4,,0.00,0,,360
2011-12-9,35,19,3,16,8,-4,86,66,41,30.32,30.25,30.19,10,10,10,10,6,,0.00,0,,2
2011-12-10,37,20,3,16,8,-2,85,65,41,30.40,30.33,30.25,10,10,10,13,7,,0.00,0,,360
2011-12-11,39,20,1,19,8,-2,85,67,38,30.23,30.13,30.04,10,10,10,8,6,,0.00,0,,341
2011-12-12,32,20,8,25,13,5,93,78,51,30.14,30.10,30.07,10,8,1,8,5,,0.00,3,,359
2011-12-13,37,32,28,34,31,27,100,92,87,30.09,30.04,29.95,10,8,1,7,1,,0.18,8,,349
2011-12-14,37,26,15,30,24,10,100,84,60,30.19,30.05,29.92,10,10,5,18,7,21,0.06,6,,243
2011-12-15,33,20,8,23,15,3,93,77,55,30.29,30.22,30.17,10,10,10,8,4,,0.00,3,,2
2011-12-16,30,20,10,18,13,9,92,76,60,30.46,30.37,30.30,10,10,10,15,8,,0.00,2,,355
2011-12-17,33,18,3,18,8,-2,85,72,48,30.53,30.47,30.41,10,10,10,13,7,,0.00,0,,3
2011-12-18,39,24,10,21,12,3,85,66,41,30.39,30.21,30.04,10,10,10,9,6,,0.00,0,,359
2011-12-19,37,26,14,25,18,9,86,67,52,29.92,29.82,29.77,10,10,10,22,9,32,0.00,6,,9
2011-12-20,35,24,14,25,16,9,86,67,48,30.05,29.99,29.95,10,10,10,14,6,17,0.00,2,,329
2011-12-21,35,28,21,21,18,16,86,71,52,29.96,29.89,29.79,10,10,10,14,5,,0.00,7,,304
2011-12-22,26,20,15,21,13,7,86,69,47,30.18,30.06,29.92,10,9,0,25,8,31,0.00,7,,90
2011-12-23,26,16,6,9,4,0,85,62,43,30.35,30.30,30.25,10,10,10,16,10,20,0.00,0,,360
2011-12-24,35,18,1,10,4,-8,85,60,35,30.44,30.39,30.35,10,10,10,15,5,18,0.00,0,,1
2011-12-25,39,21,3,10,5,-8,85,56,30,30.47,30.40,30.31,10,10,10,15,5,18,0.00,0,,358
2011-12-26,39,20,1,16,7,-4,92,63,38,30.24,30.20,30.17,10,10,10,10,4,,0.00,0,,4
2011-12-27,41,23,5,18,9,0,92,61,36,30.32,30.26,30.18,10,10,10,10,6,,0.00,0,,343
2011-12-28,41,23,5,16,9,-2,92,63,31,30.36,30.30,30.24,10,10,10,9,5,,0.00,0,,3
2011-12-29,48,29,10,28,16,3,85,63,39,30.29,30.18,30.08,10,10,10,17,6,,0.00,0,,320
2011-12-30,48,32,17,28,23,12,93,68,39,30.26,30.20,30.15,10,10,10,14,6,,0.00,0,,265
2011-12-31,48,34,19,27,20,10,86,60,23,30.43,30.18,30.03,10,10,10,31,8,46,0.00,0,,318